createdAt,value
2023-04-08T00:04:54.020Z,101964.72
2023-04-08T00:09:56.997Z,101967.56
2023-04-08T00:14:59.853Z,101978.06
2023-04-08T00:20:04.458Z,101983.44
2023-04-08T00:25:09.434Z,101975.47
2023-04-08T00:30:12.619Z,101990.44
2023-04-08T00:35:47.298Z,101983.56
2023-04-08T00:40:50.307Z,101980.53
2023-04-08T00:45:53.149Z,101980.19
2023-04-08T00:51:07.148Z,101977.72
2023-04-08T00:56:10.283Z,101977.88
2023-04-08T01:01:19.855Z,101981.03
2023-04-08T01:06:37.946Z,101986.06
2023-04-08T01:11:45.824Z,101990.03
2023-04-08T01:16:49.362Z,101983.09
2023-04-08T01:21:55.984Z,101975.56
2023-04-08T01:27:01.695Z,101981.78
2023-04-08T01:32:05.487Z,101980.41
2023-04-08T01:37:09.260Z,101975.69
2023-04-08T01:42:14.240Z,101978.91
2023-04-08T01:47:17.740Z,101972.00
2023-04-08T01:52:22.216Z,101984.38
2023-04-08T01:57:29.628Z,101975.47
2023-04-08T02:02:34.384Z,101966.03
2023-04-08T02:07:38.564Z,101960.66
2023-04-08T02:12:44.120Z,101958.41
2023-04-08T02:17:50.494Z,101965.34
2023-04-08T02:23:00.950Z,101964.13
2023-04-08T02:28:13.039Z,101959.94
2023-04-08T02:33:19.014Z,101954.28
2023-04-08T02:38:21.956Z,101950.88
2023-04-08T02:43:31.817Z,101960.03
2023-04-08T02:48:34.623Z,101957.50
2023-04-08T02:53:37.432Z,101961.97
2023-04-08T02:58:43.233Z,101974.03
2023-04-08T03:03:46.136Z,101966.88
2023-04-08T03:08:49.330Z,101972.47
2023-04-08T03:13:53.586Z,101973.50
2023-04-08T03:18:56.446Z,101974.63
2023-04-08T03:23:59.254Z,101981.06
2023-04-08T03:29:03.392Z,101989.44
2023-04-08T03:34:08.545Z,101991.41
2023-04-08T03:39:11.436Z,102000.00
2023-04-08T03:44:15.581Z,101999.84
2023-04-08T03:49:18.314Z,101995.44
2023-04-08T03:54:21.139Z,101996.75
2023-04-08T03:59:25.834Z,102004.06
2023-04-08T04:04:31.488Z,102011.28
2023-04-08T04:09:36.312Z,102013.88
2023-04-08T04:14:46.938Z,102014.25
2023-04-08T04:19:49.711Z,102024.91
2023-04-08T04:24:52.467Z,102031.09
2023-04-08T04:29:57.027Z,102030.97
2023-04-08T04:34:59.813Z,102029.38
2023-04-08T04:40:02.635Z,102025.16
2023-04-08T04:45:08.025Z,102038.19
2023-04-08T04:50:11.350Z,102038.81
2023-04-08T04:55:15.716Z,102051.91
2023-04-08T05:00:19.915Z,102056.69
2023-04-08T05:05:22.811Z,102065.81
2023-04-08T05:10:25.865Z,102060.38
2023-04-08T05:15:30.034Z,102062.63
2023-04-08T05:20:32.784Z,102055.56
2023-04-08T05:25:35.630Z,102071.63
2023-04-08T05:30:39.870Z,102076.44
2023-04-08T05:35:42.608Z,102066.53
2023-04-08T05:40:46.437Z,102073.78
2023-04-08T05:45:50.679Z,102074.44
2023-04-08T05:50:53.438Z,102083.22
2023-04-08T05:55:56.422Z,102087.72
2023-04-08T06:01:00.815Z,102086.56
2023-04-08T06:06:03.609Z,102086.34
2023-04-08T06:11:06.455Z,102097.25
2023-04-08T06:16:15.569Z,102098.56
2023-04-08T06:21:18.669Z,102102.47
2023-04-08T06:26:21.582Z,102112.50
2023-04-08T06:31:25.719Z,102115.88
2023-04-08T06:36:28.705Z,102123.63
2023-04-08T06:41:31.461Z,102128.56
2023-04-08T06:46:41.603Z,102133.41
2023-04-08T06:51:44.347Z,102140.88
2023-04-08T06:56:50.083Z,102144.47
2023-04-08T07:01:54.361Z,102153.03
2023-04-08T07:06:57.842Z,102152.03
2023-04-08T07:12:00.866Z,102150.56
2023-04-08T07:17:04.990Z,102160.19
2023-04-08T07:22:07.915Z,102159.75
2023-04-08T07:27:13.375Z,102160.69
2023-04-08T07:32:18.693Z,102160.25
2023-04-08T07:37:21.687Z,102175.00
2023-04-08T07:42:24.474Z,102165.16
2023-04-08T07:47:29.049Z,102172.84
2023-04-08T07:52:33.344Z,102181.69
2023-04-08T07:57:36.351Z,102182.41
2023-04-08T08:02:40.654Z,102195.34
2023-04-08T08:07:47.497Z,102195.75
2023-04-08T08:12:55.188Z,102195.91
2023-04-08T08:17:59.587Z,102204.66
2023-04-08T08:23:02.454Z,102209.66
2023-04-08T08:28:07.654Z,102204.72
2023-04-08T08:33:11.733Z,102215.16
2023-04-08T08:38:14.727Z,102202.00
2023-04-08T08:43:18.659Z,102209.78
2023-04-08T08:48:22.886Z,102212.06
2023-04-08T08:53:34.250Z,102222.91
2023-04-08T08:58:39.069Z,102227.97
2023-04-08T09:03:46.500Z,102225.28
2023-04-08T09:08:49.884Z,102226.44
2023-04-08T09:13:55.042Z,102229.53
2023-04-08T09:19:10.422Z,102230.06
2023-04-08T09:24:30.367Z,102231.22
2023-04-08T09:29:39.676Z,102241.75
2023-04-08T09:34:44.167Z,102249.78
2023-04-08T09:39:46.919Z,102252.41
2023-04-08T09:44:49.878Z,102252.81
2023-04-08T09:50:03.145Z,102248.66
2023-04-08T09:55:10.334Z,102247.09
2023-04-08T10:00:16.099Z,102248.75
2023-04-08T10:05:21.790Z,102251.63
2023-04-08T10:10:25.424Z,102246.81
2023-04-08T10:15:29.502Z,102243.50
2023-04-08T10:20:47.460Z,102251.59
2023-04-08T10:25:50.573Z,102245.50
2023-04-08T10:30:54.102Z,102248.47
2023-04-08T10:36:09.688Z,102256.69
2023-04-08T10:41:14.343Z,102249.22
2023-04-08T10:46:17.376Z,102252.75
2023-04-08T10:51:22.798Z,102258.44
2023-04-08T10:56:25.893Z,102259.56
2023-04-08T11:01:31.730Z,102261.59
2023-04-08T11:06:37.887Z,102258.97
2023-04-08T11:11:43.103Z,102264.84
2023-04-08T11:16:46.412Z,102264.53
2023-04-08T11:21:52.638Z,102265.75
2023-04-08T11:26:56.976Z,102267.69
2023-04-08T11:32:00.830Z,102262.22
2023-04-08T11:37:05.234Z,102264.47
2023-04-08T11:42:28.588Z,102266.38
2023-04-08T11:47:33.574Z,102262.38
2023-04-08T11:52:55.526Z,102259.66
2023-04-08T11:58:03.384Z,102264.53
2023-04-08T12:03:07.001Z,102266.22
2023-04-08T12:08:11.185Z,102265.75
2023-04-08T12:13:15.680Z,102272.25
2023-04-08T12:18:18.475Z,102273.69
2023-04-08T12:23:22.743Z,102276.31
2023-04-08T12:28:25.891Z,102272.47
2023-04-08T12:33:28.676Z,102273.25
2023-04-08T12:38:33.530Z,102268.88
2023-04-08T12:43:36.321Z,102273.88
2023-04-08T12:48:39.163Z,102277.47
2023-04-08T12:53:43.333Z,102284.81
2023-04-08T12:58:49.376Z,102282.38
2023-04-08T13:03:52.545Z,102284.44
2023-04-08T13:08:56.773Z,102291.50
2023-04-08T13:13:59.557Z,102291.34
2023-04-08T13:19:02.420Z,102287.69
2023-04-08T13:24:07.217Z,102292.78
2023-04-08T13:29:10.088Z,102287.44
2023-04-08T13:34:12.868Z,102284.13
2023-04-08T13:39:17.136Z,102287.44
2023-04-08T13:44:19.930Z,102289.47
2023-04-08T13:49:22.722Z,102281.69
2023-04-08T13:54:27.693Z,102281.38
2023-04-08T13:59:30.485Z,102290.00
2023-04-08T14:04:33.621Z,102281.44
2023-04-08T14:09:37.752Z,102289.41
2023-04-08T14:14:40.732Z,102282.22
2023-04-08T14:19:43.563Z,102286.03
2023-04-08T14:24:47.696Z,102286.22
2023-04-08T14:29:50.529Z,102287.84
2023-04-08T14:34:53.440Z,102282.91
2023-04-08T14:39:57.604Z,102285.19
2023-04-08T14:45:00.944Z,102277.91
2023-04-08T14:50:06.194Z,102282.56
2023-04-08T14:55:11.025Z,102292.63
2023-04-08T15:00:14.787Z,102277.72
2023-04-08T15:05:17.681Z,102280.69
2023-04-08T15:10:22.067Z,102278.66
2023-04-08T15:15:25.236Z,102282.56
2023-04-08T15:20:28.112Z,102280.22
2023-04-08T15:25:32.822Z,102282.75
2023-04-08T15:30:36.128Z,102289.84
2023-04-08T15:35:39.684Z,102294.59
2023-04-08T15:40:44.989Z,102304.91
2023-04-08T15:45:48.912Z,102296.88
2023-04-08T15:50:52.086Z,102299.91
2023-04-08T15:55:56.248Z,102297.84
2023-04-08T16:00:58.990Z,102305.34
2023-04-08T16:06:01.740Z,102306.97
2023-04-08T16:11:15.185Z,102306.75
2023-04-08T16:16:18.089Z,102312.06
2023-04-08T16:21:20.925Z,102299.28
2023-04-08T16:26:27.142Z,102298.97
2023-04-08T16:36:33.745Z,102310.81
2023-04-08T16:41:39.460Z,102312.06
2023-04-08T16:46:42.394Z,102309.34
2023-04-08T16:51:45.114Z,102314.16
2023-04-08T16:56:49.173Z,102320.09
2023-04-08T17:01:52.032Z,102311.06
2023-04-08T17:06:57.188Z,102317.03
2023-04-08T17:12:02.122Z,102318.84
2023-04-08T17:17:04.893Z,102321.72
2023-04-08T17:22:07.704Z,102322.50
2023-04-08T17:27:11.949Z,102324.31
2023-04-08T17:32:14.853Z,102324.50
2023-04-08T17:37:17.566Z,102323.25
2023-04-08T17:42:22.827Z,102317.03
2023-04-08T17:47:25.609Z,102331.28
2023-04-08T17:52:28.369Z,102326.00
2023-04-08T17:57:32.958Z,102326.59
2023-04-08T18:02:36.959Z,102331.56
2023-04-08T18:07:39.976Z,102331.06
2023-04-08T18:12:44.123Z,102333.81
2023-04-08T18:17:46.999Z,102337.00
2023-04-08T18:22:49.786Z,102341.88
2023-04-08T18:27:54.006Z,102351.03
2023-04-08T18:32:56.913Z,102351.06
2023-04-08T18:37:59.805Z,102351.81
2023-04-08T18:43:04.972Z,102363.97
2023-04-08T18:48:08.332Z,102360.78
2023-04-08T18:53:12.370Z,102367.91
2023-04-08T18:58:16.789Z,102375.97
2023-04-08T19:03:19.721Z,102377.13
2023-04-08T19:08:22.687Z,102370.19
2023-04-08T19:13:26.839Z,102376.94
2023-04-08T19:18:29.681Z,102370.41
2023-04-08T19:23:32.841Z,102365.91
2023-04-08T19:28:37.380Z,102366.41
2023-04-08T19:33:40.292Z,102355.66
2023-04-08T19:38:43.421Z,102350.31
2023-04-08T19:43:47.714Z,102353.97
2023-04-08T19:48:50.572Z,102352.13
2023-04-08T19:53:53.605Z,102353.66
2023-04-08T19:58:57.894Z,102350.84
2023-04-08T20:04:00.655Z,102353.69
2023-04-08T20:09:05.576Z,102361.22
2023-04-08T20:14:09.992Z,102357.47
2023-04-08T20:19:12.787Z,102371.50
2023-04-08T20:24:16.214Z,102374.69
2023-04-08T20:29:20.668Z,102374.44
2023-04-08T20:34:23.482Z,102385.03
2023-04-08T20:39:29.865Z,102382.34
2023-04-08T20:44:34.010Z,102392.53
2023-04-08T20:49:40.816Z,102386.84
2023-04-08T20:54:43.630Z,102384.03
2023-04-08T20:59:47.765Z,102384.09
2023-04-08T21:04:50.924Z,102380.44
2023-04-08T21:09:55.813Z,102381.97
2023-04-08T21:15:00.023Z,102382.97
2023-04-08T21:20:04.415Z,102389.22
2023-04-08T21:25:08.580Z,102378.00
2023-04-08T21:30:16.846Z,102381.84
2023-04-08T21:35:19.646Z,102383.41
2023-04-08T21:40:22.431Z,102386.56
2023-04-08T21:45:26.560Z,102389.94
2023-04-08T21:50:29.428Z,102390.72
2023-04-08T21:55:32.190Z,102390.03
2023-04-08T22:00:36.340Z,102388.25
2023-04-08T22:05:39.087Z,102389.09
2023-04-08T22:10:41.976Z,102382.91
2023-04-08T22:15:46.573Z,102385.94
2023-04-08T22:20:49.360Z,102385.22
2023-04-08T22:25:52.124Z,102388.91
2023-04-08T22:30:56.277Z,102388.88
2023-04-08T22:35:59.148Z,102387.81
2023-04-08T22:41:01.944Z,102387.19
2023-04-08T22:46:06.254Z,102391.63
2023-04-08T22:51:10.236Z,102389.66
2023-04-08T22:56:13.357Z,102386.09
2023-04-08T23:01:20.682Z,102385.72
2023-04-08T23:06:23.432Z,102395.59
2023-04-08T23:11:26.238Z,102395.56
2023-04-08T23:16:31.499Z,102394.53
2023-04-08T23:21:34.320Z,102395.88
2023-04-08T23:26:37.336Z,102394.34
2023-04-08T23:31:41.588Z,102397.13
2023-04-08T23:36:44.385Z,102396.47
2023-04-08T23:41:47.344Z,102388.00
2023-04-08T23:46:51.588Z,102392.28
2023-04-08T23:51:54.578Z,102394.00
2023-04-08T23:56:59.873Z,102385.19
